createdAt,value
2019-05-03T00:01:12.942Z,10.35
2019-05-03T00:03:42.502Z,10.28
2019-05-03T00:06:12.072Z,10.31
2019-05-03T00:08:41.446Z,10.30
2019-05-03T00:11:08.726Z,10.59
2019-05-03T00:13:37.583Z,10.42
2019-05-03T00:16:12.235Z,10.40
2019-05-03T00:18:42.077Z,10.36
2019-05-03T00:21:09.169Z,10.40
2019-05-03T00:23:38.103Z,10.37
2019-05-03T00:26:07.115Z,10.67
2019-05-03T00:28:36.053Z,10.46
2019-05-03T00:31:04.992Z,10.51
2019-05-03T00:33:33.940Z,10.49
2019-05-03T00:36:34.213Z,10.44
2019-05-03T00:39:21.712Z,10.46
2019-05-03T00:41:51.983Z,10.53
2019-05-03T00:44:18.888Z,10.50
2019-05-03T00:46:47.848Z,10.48
2019-05-03T00:49:16.798Z,10.41
2019-05-03T00:51:45.739Z,10.34
2019-05-03T00:54:14.696Z,10.34
2019-05-03T00:56:44.524Z,10.39
2019-05-03T00:59:12.855Z,10.42
2019-05-03T01:01:42.486Z,10.46
2019-05-03T01:04:11.821Z,10.46
2019-05-03T01:06:39.359Z,10.47
2019-05-03T01:09:12.008Z,10.50
2019-05-03T01:11:41.837Z,10.50
2019-05-03T01:14:11.900Z,10.52
2019-05-03T01:16:39.208Z,10.50
2019-05-03T01:19:08.292Z,10.44
2019-05-03T01:21:37.225Z,10.44
2019-05-03T01:24:06.438Z,10.44
2019-05-03T01:26:35.376Z,10.72
2019-05-03T01:29:04.322Z,10.50
2019-05-03T01:31:33.302Z,10.46
2019-05-03T01:34:02.456Z,10.76
2019-05-03T01:36:32.119Z,10.52
2019-05-03T01:39:02.003Z,10.49
2019-05-03T01:41:29.039Z,10.50
2019-05-03T01:43:57.969Z,10.49
2019-05-03T01:46:26.894Z,10.48
2019-05-03T01:49:03.042Z,10.47
2019-05-03T01:51:37.885Z,10.41
2019-05-03T01:54:06.811Z,10.41
2019-05-03T01:56:35.749Z,10.30
2019-05-03T01:59:04.731Z,10.20
2019-05-03T02:01:42.242Z,10.15
2019-05-03T02:04:15.331Z,10.11
2019-05-03T02:06:44.282Z,10.04
2019-05-03T02:09:13.240Z,9.99
2019-05-03T02:11:42.301Z,10.05
2019-05-03T02:14:12.394Z,9.96
2019-05-03T02:16:41.935Z,9.90
2019-05-03T02:19:09.055Z,9.91
2019-05-03T02:21:37.998Z,9.95
2019-05-03T02:24:07.054Z,9.90
2019-05-03T02:26:36.046Z,9.83
2019-05-03T02:29:05.019Z,9.80
2019-05-03T02:31:33.941Z,9.80
2019-05-03T02:34:03.689Z,9.75
2019-05-03T02:36:33.761Z,9.76
2019-05-03T02:39:02.903Z,9.73
2019-05-03T02:41:29.977Z,9.70
2019-05-03T02:43:58.946Z,9.68
2019-05-03T02:46:59.293Z,9.69
2019-05-03T02:49:31.725Z,9.69
2019-05-03T02:52:00.676Z,9.69
2019-05-03T02:54:29.623Z,9.66
2019-05-03T02:56:58.580Z,9.66
2019-05-03T02:59:27.536Z,9.74
2019-05-03T03:01:56.500Z,9.79
2019-05-03T03:04:26.140Z,9.73
2019-05-03T03:06:55.593Z,9.74
2019-05-03T03:09:25.859Z,9.74
2019-05-03T03:11:55.668Z,9.75
2019-05-03T03:14:21.990Z,9.71
2019-05-03T03:16:50.916Z,9.72
2019-05-03T03:19:19.898Z,9.70
2019-05-03T03:21:48.835Z,9.96
2019-05-03T03:24:19.270Z,9.72
2019-05-03T03:26:48.161Z,9.68
2019-05-03T03:29:17.112Z,9.62
2019-05-03T03:32:22.061Z,9.52
2019-05-03T03:35:01.457Z,9.51
2019-05-03T03:37:25.831Z,9.52
2019-05-03T03:39:52.443Z,9.49
2019-05-03T03:42:21.422Z,9.44
2019-05-03T03:44:50.461Z,9.44
2019-05-03T03:47:19.445Z,9.39
2019-05-03T03:49:48.404Z,9.37
2019-05-03T03:52:17.361Z,9.33
2019-05-03T03:54:46.271Z,9.25
2019-05-03T03:57:16.447Z,9.19
2019-05-03T03:59:45.707Z,9.42
2019-05-03T04:02:16.013Z,9.19
2019-05-03T04:04:45.045Z,9.09
2019-05-03T04:07:12.179Z,9.01
2019-05-03T04:09:41.141Z,8.99
2019-05-03T04:12:10.095Z,8.95
2019-05-03T04:14:58.169Z,8.86
2019-05-03T04:17:45.694Z,8.83
2019-05-03T04:20:16.107Z,8.75
2019-05-03T04:22:45.279Z,8.74
2019-05-03T04:25:11.814Z,8.72
2019-05-03T04:27:40.755Z,8.70
2019-05-03T04:30:09.891Z,8.71
2019-05-03T04:32:38.753Z,9.11
2019-05-03T04:35:07.803Z,8.84
2019-05-03T04:37:36.743Z,8.81
2019-05-03T04:40:06.316Z,8.80
2019-05-03T04:42:35.669Z,8.79
2019-05-03T04:45:05.871Z,8.76
2019-05-03T04:47:35.601Z,8.75
2019-05-03T04:50:01.861Z,8.74
2019-05-03T04:52:30.680Z,8.76
2019-05-03T04:55:00.433Z,8.85
2019-05-03T04:57:39.874Z,8.91
2019-05-03T04:59:58.366Z,8.99
2019-05-03T05:02:27.257Z,9.06
2019-05-03T05:04:56.197Z,9.10
2019-05-03T05:07:26.037Z,9.17
2019-05-03T05:09:56.202Z,9.23
2019-05-03T05:12:25.236Z,9.32
2019-05-03T05:14:51.775Z,9.44
2019-05-03T05:17:29.316Z,9.52
2019-05-03T05:20:05.181Z,9.62
2019-05-03T05:22:32.157Z,9.67
2019-05-03T05:25:01.181Z,9.59
2019-05-03T05:27:48.702Z,9.60
2019-05-03T05:30:10.931Z,9.69
2019-05-03T05:32:39.772Z,9.61
2019-05-03T05:35:08.848Z,9.51
2019-05-03T05:37:37.700Z,9.50
2019-05-03T05:40:07.017Z,9.73
2019-05-03T05:42:35.854Z,9.53
2019-05-03T05:45:05.381Z,9.62
2019-05-03T05:47:41.384Z,9.68
2019-05-03T05:50:14.882Z,9.68
2019-05-03T05:52:42.384Z,9.71
2019-05-03T05:55:19.410Z,9.67
2019-05-03T05:58:02.904Z,9.69
2019-05-03T06:00:27.955Z,9.72
2019-05-03T06:02:56.845Z,9.69
2019-05-03T06:05:25.755Z,9.71
2019-05-03T06:08:04.845Z,9.61
2019-05-03T06:10:57.086Z,9.66
2019-05-03T06:13:34.999Z,9.59
2019-05-03T06:16:25.933Z,9.67
2019-05-03T06:19:25.924Z,9.75
2019-05-03T06:22:01.656Z,9.90
2019-05-03T06:24:34.949Z,9.97
2019-05-03T06:27:16.061Z,10.07
2019-05-03T06:29:45.425Z,10.07
2019-05-03T06:32:26.119Z,10.08
2019-05-03T06:34:55.088Z,10.03
2019-05-03T06:37:25.148Z,10.05
2019-05-03T06:39:54.412Z,10.10
2019-05-03T06:42:23.017Z,10.08
2019-05-03T06:44:50.983Z,10.06
2019-05-03T06:47:19.855Z,10.06
2019-05-03T06:49:48.765Z,9.89
2019-05-03T06:52:19.702Z,9.88
2019-05-03T06:54:46.607Z,9.85
2019-05-03T06:57:15.487Z,10.04
2019-05-03T06:59:47.925Z,9.96
2019-05-03T07:02:50.934Z,10.12
2019-05-03T07:05:31.639Z,10.37
2019-05-03T07:08:18.296Z,10.59
2019-05-03T07:10:50.338Z,10.76
2019-05-03T07:13:19.261Z,10.97
2019-05-03T07:15:48.170Z,11.82
2019-05-03T07:18:17.088Z,14.53
2019-05-03T07:20:50.199Z,16.21
2019-05-03T07:23:19.111Z,16.95
2019-05-03T07:25:48.036Z,18.66
2019-05-03T07:28:16.914Z,20.11
2019-05-03T07:30:45.820Z,20.89
2019-05-03T07:33:19.689Z,20.88
2019-05-03T07:35:51.595Z,21.76
2019-05-03T07:38:20.502Z,21.65
2019-05-03T07:40:49.440Z,22.22
2019-05-03T07:43:18.939Z,21.40
2019-05-03T07:45:47.191Z,20.97
2019-05-03T07:48:16.099Z,21.56
2019-05-03T07:50:44.962Z,21.72
2019-05-03T07:53:15.037Z,21.70
2019-05-03T07:56:05.221Z,21.77
2019-05-03T07:58:32.513Z,21.25
2019-05-03T08:01:06.286Z,20.97
2019-05-03T08:03:30.364Z,21.50
2019-05-03T08:05:59.258Z,22.48
2019-05-03T08:08:28.155Z,22.94
2019-05-03T08:10:57.054Z,23.96
2019-05-03T08:13:25.980Z,23.65
2019-05-03T08:15:55.705Z,25.14
2019-05-03T08:18:25.736Z,24.49
2019-05-03T08:20:52.670Z,23.98
2019-05-03T08:23:27.405Z,23.39
2019-05-03T08:25:50.954Z,21.98
2019-05-03T08:28:19.290Z,20.37
2019-05-03T08:30:57.131Z,19.25
2019-05-03T08:33:45.097Z,18.14
2019-05-03T08:36:15.615Z,17.00
2019-05-03T08:38:45.078Z,18.37
2019-05-03T08:41:14.474Z,20.39
2019-05-03T08:43:41.242Z,21.44
2019-05-03T08:46:10.133Z,22.00
2019-05-03T08:48:38.987Z,23.04
2019-05-03T08:51:07.974Z,22.91
2019-05-03T08:53:36.884Z,22.93
2019-05-03T08:56:05.809Z,22.33
2019-05-03T08:58:34.920Z,21.48
2019-05-03T09:01:05.584Z,22.37
2019-05-03T09:03:32.583Z,22.13
2019-05-03T09:06:01.468Z,23.30
2019-05-03T09:08:30.331Z,24.40
2019-05-03T09:11:02.245Z,24.33
2019-05-03T09:13:48.241Z,21.89
2019-05-03T09:16:17.882Z,20.77
2019-05-03T09:18:48.177Z,20.21
2019-05-03T09:21:17.005Z,19.38
2019-05-03T09:23:45.924Z,21.20
2019-05-03T09:26:15.270Z,22.67
2019-05-03T09:28:45.374Z,23.66
2019-05-03T09:31:12.651Z,25.09
2019-05-03T09:33:41.513Z,25.31
2019-05-03T09:36:10.375Z,24.97
2019-05-03T09:38:40.559Z,24.87
2019-05-03T09:41:08.352Z,23.80
2019-05-03T09:43:37.229Z,23.52
2019-05-03T09:46:06.315Z,21.49
2019-05-03T09:48:35.140Z,20.85
2019-05-03T09:51:05.164Z,19.63
2019-05-03T09:53:36.425Z,19.14
2019-05-03T09:56:05.500Z,18.48
2019-05-03T09:58:36.434Z,18.24
2019-05-03T10:01:06.166Z,20.37
2019-05-03T10:03:32.277Z,21.14
2019-05-03T10:06:01.167Z,20.31
2019-05-03T10:08:30.076Z,19.18
2019-05-03T10:11:11.424Z,18.78
2019-05-03T10:13:41.978Z,17.88
2019-05-03T10:16:09.264Z,16.89
2019-05-03T10:18:38.176Z,16.78
2019-05-03T10:21:07.240Z,17.56
2019-05-03T10:23:45.154Z,17.50
2019-05-03T10:26:14.905Z,17.39
2019-05-03T10:28:42.000Z,17.88
2019-05-03T10:31:10.908Z,18.22
2019-05-03T10:33:55.631Z,18.35
2019-05-03T10:36:25.053Z,18.33
2019-05-03T10:38:55.345Z,18.06
2019-05-03T10:41:22.353Z,17.97
2019-05-03T10:43:51.296Z,17.96
2019-05-03T10:46:20.276Z,19.04
2019-05-03T10:48:49.151Z,19.21
2019-05-03T10:51:18.052Z,18.44
2019-05-03T10:53:49.486Z,17.52
2019-05-03T10:56:24.521Z,16.93
2019-05-03T10:59:02.240Z,16.99
2019-05-03T11:01:56.365Z,16.73
2019-05-03T11:04:25.329Z,16.62
2019-05-03T11:06:55.136Z,16.63
2019-05-03T11:09:25.585Z,17.30
2019-05-03T11:11:52.024Z,17.90
2019-05-03T11:14:20.878Z,18.20
2019-05-03T11:16:49.783Z,18.25
2019-05-03T11:19:18.649Z,18.39
2019-05-03T11:21:47.563Z,18.55
2019-05-03T11:24:16.504Z,18.00
2019-05-03T11:26:45.575Z,17.60
2019-05-03T11:29:15.855Z,17.44
2019-05-03T11:31:50.374Z,17.42
2019-05-03T11:34:22.537Z,17.33
2019-05-03T11:36:52.145Z,17.41
2019-05-03T11:39:21.120Z,17.83
2019-05-03T11:42:10.436Z,18.53
2019-05-03T11:44:39.514Z,19.51
2019-05-03T11:47:27.532Z,20.21
2019-05-03T11:50:06.481Z,19.17
2019-05-03T11:52:47.128Z,18.55
2019-05-03T11:55:41.155Z,18.19
2019-05-03T11:58:25.688Z,18.27
2019-05-03T12:01:12.946Z,17.65
2019-05-03T12:03:38.299Z,17.37
2019-05-03T12:06:07.500Z,17.04
2019-05-03T12:08:44.803Z,16.85
2019-05-03T12:11:24.498Z,16.71
2019-05-03T12:14:11.472Z,16.45
2019-05-03T12:17:12.070Z,16.68
2019-05-03T12:19:17.034Z,16.28
2019-05-03T12:21:42.773Z,16.74
2019-05-03T12:24:16.798Z,16.31
2019-05-03T12:26:47.016Z,16.53
2019-05-03T12:29:19.140Z,16.33
2019-05-03T12:32:25.540Z,16.48
2019-05-03T12:34:56.863Z,16.50
2019-05-03T12:37:32.018Z,16.62
2019-05-03T12:40:06.912Z,16.66
2019-05-03T12:42:38.022Z,16.64
2019-05-03T12:45:15.283Z,16.70
2019-05-03T12:47:45.374Z,16.41
2019-05-03T12:50:25.178Z,16.61
2019-05-03T12:52:57.676Z,16.82
2019-05-03T12:55:28.093Z,16.71
2019-05-03T12:57:59.308Z,16.31
2019-05-03T13:01:01.857Z,16.22
2019-05-03T13:03:55.436Z,16.27
2019-05-03T13:06:29.885Z,16.34
2019-05-03T13:09:08.220Z,16.32
2019-05-03T13:11:37.278Z,16.04
2019-05-03T13:14:15.781Z,16.02
2019-05-03T13:16:48.122Z,15.64
2019-05-03T13:19:17.101Z,15.72
2019-05-03T13:21:46.260Z,15.63
2019-05-03T13:24:23.371Z,15.56
2019-05-03T13:26:50.314Z,15.44
2019-05-03T13:29:19.692Z,15.61
2019-05-03T13:32:00.720Z,15.75
2019-05-03T13:34:19.122Z,15.72
2019-05-03T13:37:15.156Z,15.72
2019-05-03T13:39:51.725Z,15.55
2019-05-03T13:42:56.044Z,15.36
2019-05-03T13:45:06.001Z,15.07
2019-05-03T13:47:37.186Z,14.69
2019-05-03T13:50:06.550Z,14.54
2019-05-03T13:52:48.437Z,14.47
2019-05-03T13:56:01.179Z,14.78
2019-05-03T13:58:05.236Z,14.67
2019-05-03T14:00:34.606Z,14.85
2019-05-03T14:03:10.229Z,15.03
2019-05-03T14:05:41.335Z,15.19
2019-05-03T14:08:15.820Z,15.02
2019-05-03T14:10:49.440Z,15.17
2019-05-03T14:13:18.852Z,15.27
2019-05-03T14:15:48.327Z,15.26
2019-05-03T14:18:25.704Z,15.57
2019-05-03T14:21:15.253Z,15.35
2019-05-03T14:24:05.093Z,15.26
2019-05-03T14:26:38.888Z,15.18
2019-05-03T14:29:09.737Z,15.03
2019-05-03T14:31:38.753Z,14.68
2019-05-03T14:34:12.172Z,14.39
2019-05-03T14:36:41.093Z,14.30
2019-05-03T14:39:10.499Z,14.33
2019-05-03T14:41:46.861Z,14.33
2019-05-03T14:44:15.620Z,14.40
2019-05-03T14:46:58.815Z,14.46
2019-05-03T14:49:25.906Z,14.48
2019-05-03T14:51:56.789Z,14.55
2019-05-03T14:54:24.884Z,14.61
2019-05-03T14:57:12.237Z,14.57
2019-05-03T15:00:17.041Z,14.56
2019-05-03T15:02:58.089Z,14.57
2019-05-03T15:05:29.231Z,14.55
2019-05-03T15:07:58.727Z,14.39
2019-05-03T15:10:30.198Z,14.42
2019-05-03T15:13:00.637Z,14.36
2019-05-03T15:15:29.572Z,14.31
2019-05-03T15:17:58.464Z,14.31
2019-05-03T15:20:27.347Z,14.13
2019-05-03T15:22:56.247Z,14.01
2019-05-03T15:25:25.220Z,13.97
2019-05-03T15:27:55.387Z,13.99
2019-05-03T15:30:22.961Z,14.00
2019-05-03T15:32:57.603Z,13.92
2019-05-03T15:35:20.715Z,13.90
2019-05-03T15:37:49.610Z,14.08
2019-05-03T15:40:18.512Z,14.09
2019-05-03T15:42:54.709Z,14.02
2019-05-03T15:45:40.964Z,14.02
2019-05-03T15:48:15.039Z,13.84
2019-05-03T15:50:41.942Z,13.81
2019-05-03T15:53:10.890Z,13.61
2019-05-03T15:55:39.768Z,13.60
2019-05-03T15:58:08.797Z,13.51
2019-05-03T16:00:37.669Z,13.47
2019-05-03T16:03:10.523Z,13.34
2019-05-03T16:05:35.587Z,13.25
2019-05-03T16:08:04.646Z,13.46
2019-05-03T16:10:33.397Z,13.23
2019-05-03T16:13:02.272Z,13.13
2019-05-03T16:15:31.281Z,13.19
2019-05-03T16:18:00.226Z,13.24
2019-05-03T16:20:29.061Z,13.19
2019-05-03T16:22:57.940Z,13.14
2019-05-03T16:25:26.923Z,13.09
2019-05-03T16:28:11.123Z,13.05
2019-05-03T16:30:48.111Z,13.10
2019-05-03T16:33:26.963Z,13.12
2019-05-03T16:35:45.892Z,13.09
2019-05-03T16:38:15.691Z,13.06
2019-05-03T16:40:45.116Z,13.13
2019-05-03T16:43:12.656Z,13.13
2019-05-03T16:45:41.586Z,13.01
2019-05-03T16:48:10.601Z,12.88
2019-05-03T16:50:39.438Z,12.87
2019-05-03T16:53:08.453Z,12.73
2019-05-03T16:55:37.329Z,12.73
2019-05-03T16:58:06.477Z,12.69
2019-05-03T17:00:35.365Z,12.59
2019-05-03T17:03:05.631Z,12.66
2019-05-03T17:05:58.009Z,12.77
2019-05-03T17:08:45.235Z,12.53
2019-05-03T17:11:14.828Z,12.41
2019-05-03T17:13:45.673Z,12.43
2019-05-03T17:16:11.856Z,12.41
2019-05-03T17:18:40.730Z,12.29
2019-05-03T17:21:09.829Z,12.35
2019-05-03T17:23:38.678Z,12.28
2019-05-03T17:26:07.790Z,12.22
2019-05-03T17:28:36.738Z,12.28
2019-05-03T17:31:05.704Z,12.27
2019-05-03T17:33:34.927Z,12.18
2019-05-03T17:36:05.074Z,12.10
2019-05-03T17:38:32.447Z,12.00
2019-05-03T17:41:17.688Z,12.03
2019-05-03T17:43:56.308Z,11.89
2019-05-03T17:46:25.559Z,11.95
2019-05-03T17:48:54.723Z,11.86
2019-05-03T17:51:40.629Z,11.81
2019-05-03T17:54:28.696Z,11.82
2019-05-03T17:57:00.814Z,11.75
2019-05-03T17:59:39.278Z,11.68
2019-05-03T18:02:24.401Z,11.98
2019-05-03T18:05:18.188Z,11.72
2019-05-03T18:08:04.909Z,11.72
2019-05-03T18:10:34.700Z,11.56
2019-05-03T18:13:03.679Z,11.53
2019-05-03T18:15:35.291Z,11.46
2019-05-03T18:18:05.272Z,11.43
2019-05-03T18:20:34.588Z,11.42
2019-05-03T18:23:02.083Z,11.37
2019-05-03T18:25:30.964Z,11.31
2019-05-03T18:27:59.888Z,11.23
2019-05-03T18:30:28.881Z,11.19
2019-05-03T18:32:57.724Z,11.20
2019-05-03T18:35:26.619Z,11.18
2019-05-03T18:37:58.918Z,11.12
2019-05-03T18:40:27.846Z,11.00
2019-05-03T18:43:00.399Z,10.98
2019-05-03T18:45:51.425Z,10.75
2019-05-03T18:48:20.305Z,10.69
2019-05-03T18:50:49.217Z,10.69
2019-05-03T18:53:18.131Z,10.65
2019-05-03T18:55:47.103Z,10.59
2019-05-03T18:58:16.088Z,10.55
2019-05-03T19:00:45.414Z,10.55
2019-05-03T19:03:14.304Z,10.38
2019-05-03T19:05:45.241Z,10.35
2019-05-03T19:08:27.450Z,10.28
2019-05-03T19:11:07.125Z,10.21
2019-05-03T19:13:41.543Z,10.09
2019-05-03T19:16:28.059Z,10.07
2019-05-03T19:18:57.134Z,10.02
2019-05-03T19:21:26.195Z,10.05
2019-05-03T19:23:55.077Z,10.07
2019-05-03T19:26:24.844Z,9.99
2019-05-03T19:28:54.875Z,9.92
2019-05-03T19:31:22.021Z,9.93
2019-05-03T19:33:50.947Z,9.95
2019-05-03T19:36:19.905Z,10.34
2019-05-03T19:38:48.839Z,10.02
2019-05-03T19:41:17.746Z,9.94
2019-05-03T19:43:46.540Z,9.86
2019-05-03T19:46:16.619Z,9.88
2019-05-03T19:48:45.351Z,9.87
2019-05-03T19:51:13.339Z,9.88
2019-05-03T19:53:50.269Z,9.83
2019-05-03T19:56:20.364Z,9.77
2019-05-03T19:58:49.330Z,9.71
2019-05-03T20:01:40.336Z,9.68
2019-05-03T20:04:41.211Z,9.67
2019-05-03T20:07:48.113Z,9.63
2019-05-03T20:10:18.106Z,9.71
2019-05-03T20:12:46.004Z,9.76
2019-05-03T20:15:14.977Z,9.70
2019-05-03T20:17:56.204Z,9.73
2019-05-03T20:20:12.866Z,9.74
2019-05-03T20:22:41.853Z,9.74
2019-05-03T20:25:10.725Z,9.68
2019-05-03T20:27:39.664Z,9.71
2019-05-03T20:30:08.700Z,9.71
2019-05-03T20:32:37.599Z,9.58
2019-05-03T20:35:16.252Z,9.66
2019-05-03T20:37:35.645Z,9.58
2019-05-03T20:40:05.025Z,9.68
2019-05-03T20:43:07.863Z,9.61
2019-05-03T20:45:54.689Z,9.48
2019-05-03T20:48:22.679Z,9.39
2019-05-03T20:50:51.604Z,9.38
2019-05-03T20:53:20.517Z,9.39
2019-05-03T20:55:49.432Z,9.35
2019-05-03T20:58:18.345Z,9.36
2019-05-03T21:00:47.245Z,9.30
2019-05-03T21:03:16.189Z,9.22
2019-05-03T21:05:47.581Z,9.28
2019-05-03T21:08:14.842Z,9.22
2019-05-03T21:10:44.575Z,9.28
2019-05-03T21:13:11.933Z,9.24
2019-05-03T21:16:05.688Z,9.19
2019-05-03T21:18:53.712Z,9.13
2019-05-03T21:21:36.071Z,9.11
2019-05-03T21:24:18.091Z,9.10
2019-05-03T21:26:47.040Z,9.11
2019-05-03T21:29:15.957Z,9.21
2019-05-03T21:31:44.889Z,9.19
2019-05-03T21:34:14.788Z,9.34
2019-05-03T21:36:42.692Z,9.29
2019-05-03T21:39:11.580Z,9.21
2019-05-03T21:41:40.487Z,9.27
2019-05-03T21:44:10.739Z,9.30
2019-05-03T21:46:44.942Z,9.33
2019-05-03T21:49:17.132Z,9.41
2019-05-03T21:51:46.002Z,9.14
2019-05-03T21:54:15.426Z,9.12
2019-05-03T21:56:44.706Z,9.13
2019-05-03T21:59:12.673Z,9.01
2019-05-03T22:01:45.394Z,8.96
2019-05-03T22:04:12.253Z,8.93
2019-05-03T22:06:41.158Z,8.90
2019-05-03T22:09:10.066Z,8.81
2019-05-03T22:11:39.056Z,8.75
2019-05-03T22:14:10.599Z,8.68
2019-05-03T22:16:56.631Z,8.68
2019-05-03T22:19:25.528Z,8.70
2019-05-03T22:22:11.990Z,8.72
2019-05-03T22:24:47.369Z,8.64
2019-05-03T22:27:20.771Z,8.62
2019-05-03T22:29:49.657Z,8.63
2019-05-03T22:32:18.574Z,8.62
2019-05-03T22:34:47.491Z,8.58
2019-05-03T22:37:16.640Z,8.95
2019-05-03T22:39:47.615Z,8.64
2019-05-03T22:42:14.805Z,8.64
2019-05-03T22:44:44.771Z,8.63
2019-05-03T22:47:11.946Z,8.63
2019-05-03T22:49:40.825Z,8.60
2019-05-03T22:52:09.736Z,8.59
2019-05-03T22:54:38.599Z,8.50
2019-05-03T22:57:07.620Z,8.41
2019-05-03T22:59:36.499Z,8.35
2019-05-03T23:02:05.440Z,8.42
2019-05-03T23:04:35.573Z,8.35
2019-05-03T23:07:05.443Z,8.31
2019-05-03T23:09:32.095Z,8.30
2019-05-03T23:12:01.007Z,8.26
2019-05-03T23:14:29.884Z,8.20
2019-05-03T23:16:58.740Z,8.14
2019-05-03T23:19:27.648Z,8.18
2019-05-03T23:22:15.352Z,8.08
2019-05-03T23:24:42.402Z,7.99
2019-05-03T23:27:11.293Z,7.88
2019-05-03T23:29:40.245Z,7.89
2019-05-03T23:32:09.170Z,7.91
2019-05-03T23:34:38.030Z,7.87
2019-05-03T23:37:06.970Z,7.93
2019-05-03T23:39:35.857Z,7.96
2019-05-03T23:42:05.375Z,7.88
2019-05-03T23:44:35.101Z,7.87
2019-05-03T23:47:17.819Z,7.92
2019-05-03T23:49:46.683Z,8.08
2019-05-03T23:52:35.384Z,8.11
2019-05-03T23:55:05.727Z,8.08
2019-05-03T23:57:35.687Z,8.08
